Time,TemperatureF,DewpointF,PressureIn,WindDirection,WindDirectionDegrees,WindSpeedMPH,WindSpeedGustMPH,Humidity,HourlyPrecipIn,Conditions,Clouds,dailyrainin,SoftwareType,DateUTC
2013-09-27 00:13:00,66.7,53.3,29.25,SE,135,0.0,0.0,62,0.00,,,0.00,WUHU21623XXSP,2013-09-27 05:13:00,
2013-09-27 00:14:00,66.7,53.3,29.25,SE,135,0.0,0.0,62,0.00,,,0.00,WUHU21623XXSP,2013-09-27 05:14:00,
2013-09-27 00:19:00,66.6,53.1,29.25,SE,135,2.2,2.2,62,0.00,,,0.00,WUHU21623XXSP,2013-09-27 05:19:00,
2013-09-27 00:24:00,66.4,53.1,29.25,SE,135,2.0,2.2,62,0.00,,,0.00,WUHU21623XXSP,2013-09-27 05:24:00,
2013-09-27 00:29:00,66.4,53.0,29.25,SE,135,4.7,4.7,62,0.00,,,0.00,WUHU21623XXSP,2013-09-27 05:29:00,
2013-09-27 00:34:00,66.2,52.8,29.25,SE,135,0.4,4.7,62,0.00,,,0.00,WUHU21623XXSP,2013-09-27 05:34:00,
2013-09-27 00:39:00,66.0,52.6,29.26,SE,135,4.9,4.9,62,0.00,,,0.00,WUHU21623XXSP,2013-09-27 05:39:00,
2013-09-27 00:57:00,65.8,52.6,29.25,SE,135,2.0,2.0,62,0.00,,,0.00,WUHU21623XXSP,2013-09-27 05:57:00,
2013-09-27 01:57:00,64.0,51.3,29.26,SSE,158,2.7,2.7,63,0.00,,,0.00,WUHU21623XXSP,2013-09-27 06:57:00,
2013-09-27 02:57:00,63.3,50.2,29.27,SE,135,5.4,5.4,62,0.00,,,0.00,WUHU21623XXSP,2013-09-27 07:57:00,
2013-09-27 03:57:00,62.2,49.6,29.27,SE,135,2.7,2.7,63,0.00,,,0.00,WUHU21623XXSP,2013-09-27 08:57:00,
2013-09-27 04:40:00,61.5,49.2,29.28,SSE,157,0.0,0.0,64,0.00,,,0.00,WUHU21623XXSP,2013-09-27 09:40:00,
2013-09-27 04:45:00,61.5,49.2,29.28,South,180,3.4,3.4,64,0.00,,,0.00,WUHU21623XXSP,2013-09-27 09:45:00,
2013-09-27 04:50:00,61.5,49.2,29.28,SE,135,0.0,3.4,64,0.00,,,0.00,WUHU21623XXSP,2013-09-27 09:50:00,
2013-09-27 04:55:00,61.5,49.2,29.29,SE,135,0.0,1.6,64,0.00,,,0.00,WUHU21623XXSP,2013-09-27 09:55:00,
2013-09-27 05:00:00,61.3,49.2,29.29,SE,135,3.6,3.6,64,0.00,,,0.00,WUHU21623XXSP,2013-09-27 10:00:00,
2013-09-27 05:05:00,61.3,49.1,29.29,SE,135,0.0,3.6,64,0.00,,,0.00,WUHU21623XXSP,2013-09-27 10:05:00,
2013-09-27 05:10:00,61.3,49.1,29.29,SE,135,3.1,3.6,64,0.00,,,0.00,WUHU21623XXSP,2013-09-27 10:10:00,
2013-09-27 05:15:00,61.3,49.1,29.29,SE,135,0.9,3.1,64,0.00,,,0.00,WUHU21623XXSP,2013-09-27 10:15:00,
2013-09-27 05:20:00,61.2,48.9,29.29,SE,135,0.0,3.1,64,0.00,,,0.00,WUHU21623XXSP,2013-09-27 10:20:00,
2013-09-27 05:25:00,61.2,48.9,29.29,SE,135,2.9,2.9,64,0.00,,,0.00,WUHU21623XXSP,2013-09-27 10:25:00,
2013-09-27 05:30:00,61.2,48.9,29.29,SE,135,2.9,2.9,64,0.00,,,0.00,WUHU21623XXSP,2013-09-27 10:30:00,
2013-09-27 05:35:00,61.0,48.8,29.29,ESE,112,0.0,2.9,64,0.00,,,0.00,WUHU21623XXSP,2013-09-27 10:35:00,
2013-09-27 05:40:00,61.0,48.8,29.29,SSE,157,4.3,4.3,64,0.00,,,0.00,WUHU21623XXSP,2013-09-27 10:40:00,
2013-09-27 05:45:00,61.0,48.8,29.30,SSE,157,0.0,4.3,64,0.00,,,0.00,WUHU21623XXSP,2013-09-27 10:45:00,
2013-09-27 05:50:00,61.0,48.8,29.29,SE,135,0.7,0.7,64,0.00,,,0.00,WUHU21623XXSP,2013-09-27 10:50:00,
2013-09-27 05:55:00,61.0,48.8,29.30,SE,135,0.0,1.8,64,0.00,,,0.00,WUHU21623XXSP,2013-09-27 10:55:00,
2013-09-27 06:00:00,61.0,48.8,29.30,SE,135,2.2,5.6,64,0.00,,,0.00,WUHU21623XXSP,2013-09-27 11:00:00,
2013-09-27 06:05:00,60.8,48.6,29.30,SE,135,1.8,5.6,64,0.00,,,0.00,WUHU21623XXSP,2013-09-27 11:05:00,
2013-09-27 06:10:00,60.6,48.4,29.30,SE,135,0.0,3.6,64,0.00,,,0.00,WUHU21623XXSP,2013-09-27 11:10:00,
2013-09-27 06:15:00,60.6,48.8,29.30,South,180,3.4,3.4,65,0.00,,,0.00,WUHU21623XXSP,2013-09-27 11:15:00,
2013-09-27 06:20:00,60.6,48.8,29.30,SE,135,2.9,3.4,65,0.00,,,0.00,WUHU21623XXSP,2013-09-27 11:20:00,
2013-09-27 06:25:00,60.4,48.8,29.30,SE,135,3.8,4.3,65,0.00,,,0.00,WUHU21623XXSP,2013-09-27 11:25:00,
2013-09-27 06:30:00,60.4,48.7,29.30,SE,135,3.8,4.3,65,0.00,,,0.00,WUHU21623XXSP,2013-09-27 11:30:00,
2013-09-27 06:35:00,60.4,48.7,29.30,SSE,157,3.6,3.8,65,0.00,,,0.00,WUHU21623XXSP,2013-09-27 11:35:00,
2013-09-27 06:40:00,60.1,48.5,29.31,SE,135,6.9,6.9,65,0.00,,,0.00,WUHU21623XXSP,2013-09-27 11:40:00,
2013-09-27 06:45:00,60.1,48.3,29.31,SE,135,0.0,6.9,65,0.00,,,0.00,WUHU21623XXSP,2013-09-27 11:45:00,
2013-09-27 06:50:00,60.1,48.7,29.31,SSE,157,4.7,4.7,66,0.00,,,0.00,WUHU21623XXSP,2013-09-27 11:50:00,
2013-09-27 06:55:00,60.1,48.7,29.31,SE,135,2.5,6.0,66,0.00,,,0.00,WUHU21623XXSP,2013-09-27 11:55:00,
2013-09-27 07:00:00,60.1,48.7,29.31,SSE,157,0.0,6.0,66,0.00,,,0.00,WUHU21623XXSP,2013-09-27 12:00:00,
2013-09-27 07:05:00,60.1,48.7,29.32,SSE,157,0.0,2.7,66,0.00,,,0.00,WUHU21623XXSP,2013-09-27 12:05:00,
2013-09-27 07:10:00,60.1,48.7,29.31,SSE,157,2.7,2.7,66,0.00,,,0.00,WUHU21623XXSP,2013-09-27 12:10:00,
2013-09-27 07:15:00,60.3,48.7,29.31,SSE,157,0.7,2.7,66,0.00,,,0.00,WUHU21623XXSP,2013-09-27 12:15:00,
2013-09-27 07:20:00,60.4,49.1,29.31,SE,135,0.0,0.7,66,0.00,,,0.00,WUHU21623XXSP,2013-09-27 12:20:00,
2013-09-27 07:25:00,60.4,49.1,29.32,SE,135,0.7,0.7,66,0.00,,,0.00,WUHU21623XXSP,2013-09-27 12:25:00,
2013-09-27 07:30:00,60.4,49.1,29.31,SE,135,1.8,2.5,66,0.00,,,0.00,WUHU21623XXSP,2013-09-27 12:30:00,
2013-09-27 07:35:00,60.6,49.2,29.32,SE,135,4.9,4.9,66,0.00,,,0.00,WUHU21623XXSP,2013-09-27 12:35:00,
2013-09-27 07:40:00,60.6,49.2,29.32,SE,135,7.8,7.8,66,0.00,,,0.00,WUHU21623XXSP,2013-09-27 12:40:00,
2013-09-27 07:45:00,60.6,49.2,29.32,SSE,157,1.6,7.8,66,0.00,,,0.00,WUHU21623XXSP,2013-09-27 12:45:00,
2013-09-27 07:50:00,61.0,49.6,29.32,SSE,157,2.2,7.8,66,0.00,,,0.00,WUHU21623XXSP,2013-09-27 12:50:00,
2013-09-27 07:55:00,61.2,49.7,29.32,South,180,0.2,2.2,66,0.00,,,0.00,WUHU21623XXSP,2013-09-27 12:55:00,
2013-09-27 08:00:00,61.3,49.9,29.32,SSE,157,2.2,2.2,66,0.00,,,0.00,WUHU21623XXSP,2013-09-27 13:00:00,
2013-09-27 08:05:00,61.5,50.1,29.32,SSE,157,1.3,2.2,66,0.00,,,0.00,WUHU21623XXSP,2013-09-27 13:05:00,
2013-09-27 08:10:00,62.1,50.6,29.31,SE,135,0.0,4.3,66,0.00,,,0.00,WUHU21623XXSP,2013-09-27 13:10:00,
2013-09-27 08:15:00,62.4,50.7,29.31,SSE,157,2.5,4.3,65,0.00,,,0.00,WUHU21623XXSP,2013-09-27 13:15:00,
2013-09-27 08:20:00,62.6,50.6,29.32,SE,135,0.9,5.8,65,0.00,,,0.00,WUHU21623XXSP,2013-09-27 13:20:00,
2013-09-27 08:25:00,63.1,51.1,29.32,SE,135,0.0,5.8,65,0.00,,,0.00,WUHU21623XXSP,2013-09-27 13:25:00,
2013-09-27 08:30:00,63.5,51.1,29.32,SE,135,1.8,5.4,64,0.00,,,0.00,WUHU21623XXSP,2013-09-27 13:30:00,
2013-09-27 08:35:00,64.0,51.6,29.32,SSE,157,3.4,3.4,64,0.00,,,0.00,WUHU21623XXSP,2013-09-27 13:35:00,
2013-09-27 08:40:00,64.6,52.1,29.32,SSE,157,1.8,3.6,64,0.00,,,0.00,WUHU21623XXSP,2013-09-27 13:40:00,
2013-09-27 08:45:00,64.9,52.4,29.32,SE,135,6.5,6.5,64,0.00,,,0.00,WUHU21623XXSP,2013-09-27 13:45:00,
2013-09-27 08:50:00,65.3,52.2,29.31,SE,135,4.5,6.5,63,0.00,,,0.00,WUHU21623XXSP,2013-09-27 13:50:00,
2013-09-27 08:55:00,66.0,53.0,29.32,SE,135,8.5,11.2,63,0.00,,,0.00,WUHU21623XXSP,2013-09-27 13:55:00,
2013-09-27 09:00:00,66.4,53.4,29.31,South,180,0.0,11.2,63,0.00,,,0.00,WUHU21623XXSP,2013-09-27 14:00:00,
2013-09-27 09:05:00,66.7,53.7,29.31,SSE,157,3.4,9.6,63,0.00,,,0.00,WUHU21623XXSP,2013-09-27 14:05:00,
2013-09-27 09:10:00,67.3,54.2,29.31,SE,135,1.6,9.6,63,0.00,,,0.00,WUHU21623XXSP,2013-09-27 14:10:00,
2013-09-27 09:15:00,67.8,54.6,29.31,South,180,5.8,5.8,63,0.00,,,0.00,WUHU21623XXSP,2013-09-27 14:15:00,
2013-09-27 09:20:00,68.2,55.1,29.32,SE,135,0.0,5.8,63,0.00,,,0.00,WUHU21623XXSP,2013-09-27 14:20:00,
2013-09-27 09:25:00,68.9,55.2,29.31,South,180,4.0,4.3,62,0.00,,,0.00,WUHU21623XXSP,2013-09-27 14:25:00,
2013-09-27 09:30:00,69.4,55.9,29.32,SE,135,1.8,4.0,62,0.00,,,0.00,WUHU21623XXSP,2013-09-27 14:30:00,
2013-09-27 09:35:00,70.0,56.4,29.32,SE,135,5.4,5.4,62,0.00,,,0.00,WUHU21623XXSP,2013-09-27 14:35:00,
2013-09-27 09:40:00,70.7,56.7,29.32,South,180,1.8,5.4,62,0.00,,,0.00,WUHU21623XXSP,2013-09-27 14:40:00,
2013-09-27 09:45:00,71.2,57.1,29.32,SE,135,0.0,2.0,61,0.00,,,0.00,WUHU21623XXSP,2013-09-27 14:45:00,
2013-09-27 09:50:00,71.6,57.5,29.31,SE,135,0.9,4.0,61,0.00,,,0.00,WUHU21623XXSP,2013-09-27 14:50:00,
2013-09-27 09:55:00,72.5,58.3,29.32,SE,135,5.1,5.1,61,0.00,,,0.00,WUHU21623XXSP,2013-09-27 14:55:00,
2013-09-27 10:00:00,73.2,58.9,29.32,ESE,112,6.0,6.9,61,0.00,,,0.00,WUHU21623XXSP,2013-09-27 15:00:00,
2013-09-27 10:05:00,73.6,59.3,29.31,SSE,157,2.2,6.9,61,0.00,,,0.00,WUHU21623XXSP,2013-09-27 15:05:00,
2013-09-27 10:10:00,74.3,59.5,29.31,SE,135,2.5,7.4,60,0.00,,,0.00,WUHU21623XXSP,2013-09-27 15:10:00,
2013-09-27 10:15:00,74.8,60.1,29.31,WSW,247,1.3,7.4,60,0.00,,,0.00,WUHU21623XXSP,2013-09-27 15:15:00,
2013-09-27 10:20:00,75.0,60.3,29.31,SSE,157,3.1,4.3,60,0.00,,,0.00,WUHU21623XXSP,2013-09-27 15:20:00,
2013-09-27 10:25:00,75.9,60.6,29.31,SSW,202,5.1,5.1,59,0.00,,,0.00,WUHU21623XXSP,2013-09-27 15:25:00,
2013-09-27 10:30:00,76.3,60.9,29.31,SE,135,0.0,5.1,59,0.00,,,0.00,WUHU21623XXSP,2013-09-27 15:30:00,
2013-09-27 10:35:00,76.8,61.4,29.31,South,180,6.0,6.0,59,0.00,,,0.00,WUHU21623XXSP,2013-09-27 15:35:00,
2013-09-27 10:40:00,77.4,61.4,29.31,SE,135,3.4,6.0,58,0.00,,,0.00,WUHU21623XXSP,2013-09-27 15:40:00,
2013-09-27 10:45:00,77.7,61.8,29.31,West,270,1.3,3.4,58,0.00,,,0.00,WUHU21623XXSP,2013-09-27 15:45:00,
2013-09-27 10:50:00,78.1,62.1,29.31,SSW,202,0.0,2.7,58,0.00,,,0.00,WUHU21623XXSP,2013-09-27 15:50:00,
2013-09-27 10:55:00,78.6,62.1,29.31,SSE,157,0.0,2.7,57,0.00,,,0.00,WUHU21623XXSP,2013-09-27 15:55:00,
2013-09-27 11:00:00,79.2,62.6,29.31,SE,135,0.0,3.1,57,0.00,,,0.00,WUHU21623XXSP,2013-09-27 16:00:00,
2013-09-27 11:05:00,79.7,63.1,29.31,SSE,157,2.0,3.1,57,0.00,,,0.00,WUHU21623XXSP,2013-09-27 16:05:00,
2013-09-27 11:10:00,80.2,63.1,29.30,WSW,247,0.0,2.0,56,0.00,,,0.00,WUHU21623XXSP,2013-09-27 16:10:00,
2013-09-27 11:15:00,80.6,63.4,29.30,SSW,202,0.0,2.2,56,0.00,,,0.00,WUHU21623XXSP,2013-09-27 16:15:00,
2013-09-27 11:20:00,80.8,63.0,29.30,SSE,157,1.8,6.0,55,0.00,,,0.00,WUHU21623XXSP,2013-09-27 16:20:00,
2013-09-27 11:25:00,81.1,63.4,29.30,NNW,337,0.9,6.0,55,0.00,,,0.00,WUHU21623XXSP,2013-09-27 16:25:00,
2013-09-27 11:30:00,81.3,63.5,29.30,SSE,157,2.0,4.7,55,0.00,,,0.00,WUHU21623XXSP,2013-09-27 16:30:00,
2013-09-27 11:35:00,81.7,63.3,29.30,SSE,157,0.2,4.5,54,0.00,,,0.00,WUHU21623XXSP,2013-09-27 16:35:00,
2013-09-27 11:40:00,82.0,63.6,29.30,WSW,247,1.6,4.5,54,0.00,,,0.00,WUHU21623XXSP,2013-09-27 16:40:00,
2013-09-27 11:45:00,82.0,63.6,29.30,WSW,247,2.0,2.7,54,0.00,,,0.00,WUHU21623XXSP,2013-09-27 16:45:00,
2013-09-27 11:50:00,82.2,63.3,29.30,SE,135,1.3,4.3,53,0.00,,,0.00,WUHU21623XXSP,2013-09-27 16:50:00,
2013-09-27 11:55:00,82.6,63.6,29.30,South,180,0.7,5.8,53,0.00,,,0.00,WUHU21623XXSP,2013-09-27 16:55:00,
2013-09-27 12:00:00,82.6,63.6,29.30,SW,225,4.0,5.8,53,0.00,,,0.00,WUHU21623XXSP,2013-09-27 17:00:00,
2013-09-27 12:05:00,82.8,63.8,29.29,SSE,157,1.6,4.5,53,0.00,,,0.00,WUHU21623XXSP,2013-09-27 17:05:00,
2013-09-27 12:10:00,82.9,63.5,29.29,West,270,1.1,2.0,52,0.00,,,0.00,WUHU21623XXSP,2013-09-27 17:10:00,
2013-09-27 12:15:00,82.9,63.5,29.29,NE,45,0.4,1.1,52,0.00,,,0.00,WUHU21623XXSP,2013-09-27 17:15:00,
2013-09-27 12:20:00,83.1,63.6,29.29,SSE,157,6.0,6.0,52,0.00,,,0.00,WUHU21623XXSP,2013-09-27 17:20:00,
2013-09-27 12:25:00,83.5,63.5,29.29,SE,135,2.2,6.0,51,0.00,,,0.00,WUHU21623XXSP,2013-09-27 17:25:00,
2013-09-27 12:26:00,83.5,63.5,29.29,SE,135,2.2,6.0,51,0.00,,,0.00,WUHU21623XXSP,2013-09-27 17:26:00,
2013-09-27 12:31:00,83.8,63.3,29.29,SE,135,0.0,6.0,50,0.00,,,0.00,WUHU21623XXSP,2013-09-27 17:31:00,
2013-09-27 12:36:00,84.0,62.9,29.29,SSE,157,7.2,7.2,49,0.00,,,0.00,WUHU21623XXSP,2013-09-27 17:36:00,
2013-09-27 12:41:00,84.2,63.0,29.29,SSW,202,0.0,7.6,49,0.00,,,0.00,WUHU21623XXSP,2013-09-27 17:41:00,
2013-09-27 12:46:00,84.7,63.5,29.29,SE,135,0.0,7.6,49,0.00,,,0.00,WUHU21623XXSP,2013-09-27 17:46:00,
2013-09-27 12:51:00,84.9,63.7,29.29,SSE,157,0.0,4.9,49,0.00,,,0.00,WUHU21623XXSP,2013-09-27 17:51:00,
2013-09-27 12:56:00,84.9,63.7,29.28,SSE,157,0.0,0.0,48,0.00,,,0.00,WUHU21623XXSP,2013-09-27 17:56:00,
2013-09-27 13:01:00,84.9,63.1,29.28,SW,225,1.1,1.1,48,0.00,,,0.00,WUHU21623XXSP,2013-09-27 18:01:00,
2013-09-27 13:06:00,84.9,62.4,29.28,SE,135,5.6,5.6,47,0.00,,,0.00,WUHU21623XXSP,2013-09-27 18:06:00,
2013-09-27 13:11:00,84.9,62.4,29.28,SSE,157,4.7,6.3,47,0.00,,,0.00,WUHU21623XXSP,2013-09-27 18:11:00,
2013-09-27 13:16:00,85.1,62.6,29.28,NE,45,4.9,6.3,47,0.00,,,0.00,WUHU21623XXSP,2013-09-27 18:16:00,
2013-09-27 13:21:00,85.1,62.0,29.28,NE,45,4.9,4.9,46,0.00,,,0.00,WUHU21623XXSP,2013-09-27 18:21:00,
2013-09-27 13:26:00,84.9,61.8,29.28,SSE,157,6.9,6.9,46,0.00,,,0.00,WUHU21623XXSP,2013-09-27 18:26:00,
2013-09-27 13:31:00,84.9,61.8,29.27,SSE,157,4.5,6.9,46,0.00,,,0.00,WUHU21623XXSP,2013-09-27 18:31:00,
2013-09-27 13:36:00,84.9,61.2,29.28,SE,135,9.4,9.4,45,0.00,,,0.00,WUHU21623XXSP,2013-09-27 18:36:00,
2013-09-27 13:41:00,84.9,61.2,29.27,SSE,157,9.4,9.4,45,0.00,,,0.00,WUHU21623XXSP,2013-09-27 18:41:00,
2013-09-27 13:46:00,85.1,61.2,29.27,SE,135,3.6,9.4,45,0.00,,,0.00,WUHU21623XXSP,2013-09-27 18:46:00,
2013-09-27 13:51:00,85.3,61.5,29.26,SE,135,16.3,16.3,45,0.00,,,0.00,WUHU21623XXSP,2013-09-27 18:51:00,
2013-09-27 13:56:00,85.3,61.5,29.26,SE,135,8.7,16.3,45,0.00,,,0.00,WUHU21623XXSP,2013-09-27 18:56:00,
2013-09-27 14:02:00,85.3,61.5,29.26,SE,135,2.5,8.7,45,0.00,,,0.00,WUHU21623XXSP,2013-09-27 19:02:00,
2013-09-27 14:07:00,85.6,61.8,29.26,SSE,157,3.8,5.8,45,0.00,,,0.00,WUHU21623XXSP,2013-09-27 19:07:00,
2013-09-27 14:12:00,85.3,60.9,29.25,SSE,157,1.3,7.8,44,0.00,,,0.00,WUHU21623XXSP,2013-09-27 19:12:00,
2013-09-27 14:17:00,85.3,60.9,29.25,SSE,157,1.3,7.8,45,0.00,,,0.00,WUHU21623XXSP,2013-09-27 19:17:00,
2013-09-27 14:22:00,85.6,61.2,29.25,SE,135,6.3,6.3,44,0.00,,,0.00,WUHU21623XXSP,2013-09-27 19:22:00,
2013-09-27 14:27:00,85.6,61.2,29.25,South,180,4.5,10.1,44,0.00,,,0.00,WUHU21623XXSP,2013-09-27 19:27:00,
2013-09-27 14:32:00,85.6,61.2,29.25,SSW,202,2.0,10.1,44,0.00,,,0.00,WUHU21623XXSP,2013-09-27 19:32:00,
2013-09-27 14:37:00,85.6,61.2,29.25,SE,135,4.3,4.3,44,0.00,,,0.00,WUHU21623XXSP,2013-09-27 19:37:00,
2013-09-27 14:42:00,85.6,61.2,29.25,SE,135,3.6,5.4,44,0.00,,,0.00,WUHU21623XXSP,2013-09-27 19:42:00,
2013-09-27 14:47:00,85.6,61.2,29.24,WSW,247,1.1,7.4,44,0.00,,,0.00,WUHU21623XXSP,2013-09-27 19:47:00,
2013-09-27 14:52:00,85.6,61.2,29.24,SSE,157,1.8,7.4,44,0.00,,,0.00,WUHU21623XXSP,2013-09-27 19:52:00,
2013-09-27 14:57:00,85.6,61.0,29.24,South,180,0.0,7.6,43,0.00,,,0.00,WUHU21623XXSP,2013-09-27 19:57:00,
2013-09-27 15:02:00,85.3,60.2,29.24,SE,135,0.2,7.6,43,0.00,,,0.00,WUHU21623XXSP,2013-09-27 20:02:00,
2013-09-27 15:07:00,85.3,60.9,29.24,SSW,202,5.8,5.8,43,0.00,,,0.00,WUHU21623XXSP,2013-09-27 20:07:00,
2013-09-27 15:12:00,85.3,60.2,29.24,SSE,157,6.5,6.5,43,0.00,,,0.00,WUHU21623XXSP,2013-09-27 20:12:00,
2013-09-27 15:17:00,85.1,60.7,29.23,ESE,112,9.8,9.8,44,0.00,,,0.00,WUHU21623XXSP,2013-09-27 20:17:00,
2013-09-27 15:22:00,85.1,60.7,29.23,South,180,4.9,9.8,43,0.00,,,0.00,WUHU21623XXSP,2013-09-27 20:22:00,
2013-09-27 15:27:00,84.9,59.9,29.23,South,180,3.1,9.6,43,0.00,,,0.00,WUHU21623XXSP,2013-09-27 20:27:00,
2013-09-27 15:32:00,84.9,59.9,29.23,South,180,0.0,4.9,43,0.00,,,0.00,WUHU21623XXSP,2013-09-27 20:32:00,
2013-09-27 15:37:00,84.9,59.9,29.23,East,90,0.0,4.5,43,0.00,,,0.00,WUHU21623XXSP,2013-09-27 20:37:00,
2013-09-27 15:42:00,84.9,59.9,29.23,West,270,3.8,4.5,43,0.00,,,0.00,WUHU21623XXSP,2013-09-27 20:42:00,
2013-09-27 15:47:00,84.9,59.9,29.24,SE,135,6.0,6.0,43,0.00,,,0.00,WUHU21623XXSP,2013-09-27 20:47:00,
2013-09-27 15:52:00,84.9,59.9,29.23,SSW,202,3.8,6.0,43,0.00,,,0.00,WUHU21623XXSP,2013-09-27 20:52:00,
2013-09-27 15:57:00,84.9,59.9,29.23,NNE,22,0.0,6.0,43,0.00,,,0.00,WUHU21623XXSP,2013-09-27 20:57:00,
2013-09-27 16:02:00,84.7,59.8,29.23,SE,135,6.0,6.0,43,0.00,,,0.00,WUHU21623XXSP,2013-09-27 21:02:00,
2013-09-27 16:07:00,84.6,59.6,29.23,SSE,157,10.1,10.1,43,0.00,,,0.00,WUHU21623XXSP,2013-09-27 21:07:00,
2013-09-27 16:12:00,84.7,59.8,29.23,SE,135,5.4,10.1,43,0.00,,,0.00,WUHU21623XXSP,2013-09-27 21:12:00,
2013-09-27 16:17:00,84.7,59.8,29.23,SE,135,0.0,5.8,43,0.00,,,0.00,WUHU21623XXSP,2013-09-27 21:17:00,
2013-09-27 16:22:00,84.6,59.6,29.22,SE,135,12.1,12.1,43,0.00,,,0.00,WUHU21623XXSP,2013-09-27 21:22:00,
2013-09-27 16:27:00,84.4,59.4,29.22,SSE,157,4.3,12.1,43,0.00,,,0.00,WUHU21623XXSP,2013-09-27 21:27:00,
2013-09-27 16:32:00,84.4,60.1,29.22,SE,135,12.3,12.3,44,0.00,,,0.00,WUHU21623XXSP,2013-09-27 21:32:00,
2013-09-27 16:37:00,84.4,60.1,29.22,South,180,6.5,12.3,44,0.00,,,0.00,WUHU21623XXSP,2013-09-27 21:37:00,
2013-09-27 16:42:00,84.4,59.4,29.22,SE,135,12.5,12.5,43,0.00,,,0.00,WUHU21623XXSP,2013-09-27 21:42:00,
2013-09-27 16:47:00,84.4,60.1,29.22,SE,135,0.0,12.5,44,0.00,,,0.00,WUHU21623XXSP,2013-09-27 21:47:00,
2013-09-27 16:52:00,84.2,59.9,29.23,SE,135,0.0,4.9,44,0.00,,,0.00,WUHU21623XXSP,2013-09-27 21:52:00,
2013-09-27 16:57:00,84.0,59.3,29.23,SSE,157,2.0,4.9,43,0.00,,,0.00,WUHU21623XXSP,2013-09-27 21:57:00,
2013-09-27 17:02:00,84.2,59.3,29.23,SSE,157,2.7,2.7,43,0.00,,,0.00,WUHU21623XXSP,2013-09-27 22:02:00,
2013-09-27 17:07:00,84.4,59.4,29.23,SE,135,3.6,3.6,43,0.00,,,0.00,WUHU21623XXSP,2013-09-27 22:07:00,
2013-09-27 17:12:00,84.0,58.5,29.23,SSE,157,5.1,5.1,42,0.00,,,0.00,WUHU21623XXSP,2013-09-27 22:12:00,
2013-09-27 17:17:00,83.8,58.3,29.23,SE,135,2.0,5.1,42,0.00,,,0.00,WUHU21623XXSP,2013-09-27 22:17:00,
2013-09-27 17:22:00,83.5,57.3,29.23,SE,135,2.5,5.1,41,0.00,,,0.00,WUHU21623XXSP,2013-09-27 22:22:00,
2013-09-27 17:27:00,83.5,58.0,29.23,SE,135,2.7,2.7,42,0.00,,,0.00,WUHU21623XXSP,2013-09-27 22:27:00,
2013-09-27 17:32:00,83.1,57.6,29.23,NE,45,0.0,8.3,42,0.00,,,0.00,WUHU21623XXSP,2013-09-27 22:32:00,
2013-09-27 17:37:00,82.9,56.9,29.22,SSE,157,0.0,8.3,41,0.00,,,0.00,WUHU21623XXSP,2013-09-27 22:37:00,
2013-09-27 17:42:00,82.6,57.1,29.22,SE,135,0.0,6.3,42,0.00,,,0.00,WUHU21623XXSP,2013-09-27 22:42:00,
2013-09-27 17:47:00,82.2,56.8,29.22,SSW,202,6.9,6.9,42,0.00,,,0.00,WUHU21623XXSP,2013-09-27 22:47:00,
2013-09-27 17:52:00,82.0,56.7,29.22,South,180,8.3,8.3,42,0.00,,,0.00,WUHU21623XXSP,2013-09-27 22:52:00,
2013-09-27 17:57:00,81.7,56.3,29.22,SSE,157,4.7,8.3,42,0.00,,,0.00,WUHU21623XXSP,2013-09-27 22:57:00,
2013-09-27 18:02:00,81.1,55.9,29.22,SSE,157,3.6,4.7,42,0.00,,,0.00,WUHU21623XXSP,2013-09-27 23:02:00,
2013-09-27 18:07:00,80.8,56.1,29.22,SSE,157,1.8,8.7,43,0.00,,,0.00,WUHU21623XXSP,2013-09-27 23:07:00,
2013-09-27 18:12:00,80.4,55.8,29.23,SE,135,1.8,8.7,43,0.00,,,0.00,WUHU21623XXSP,2013-09-27 23:12:00,
2013-09-27 18:17:00,80.2,55.7,29.22,South,180,1.6,6.3,43,0.00,,,0.00,WUHU21623XXSP,2013-09-27 23:17:00,
2013-09-27 18:22:00,79.7,55.2,29.22,SE,135,4.3,6.3,43,0.00,,,0.00,WUHU21623XXSP,2013-09-27 23:22:00,
2013-09-27 18:27:00,79.5,55.0,29.23,SSE,157,0.0,4.3,43,0.00,,,0.00,WUHU21623XXSP,2013-09-27 23:27:00,
2013-09-27 18:32:00,79.3,55.5,29.22,SSE,157,0.0,1.6,44,0.00,,,0.00,WUHU21623XXSP,2013-09-27 23:32:00,
2013-09-27 18:37:00,78.8,55.0,29.22,SE,135,0.0,1.8,44,0.00,,,0.00,WUHU21623XXSP,2013-09-27 23:37:00,
2013-09-27 18:42:00,78.6,54.8,29.22,SSE,157,1.8,1.8,44,0.00,,,0.00,WUHU21623XXSP,2013-09-27 23:42:00,
2013-09-27 18:47:00,78.3,54.5,29.23,SE,135,0.0,1.8,44,0.00,,,0.00,WUHU21623XXSP,2013-09-27 23:47:00,
2013-09-27 18:52:00,77.7,54.0,29.22,SE,135,1.6,1.6,44,0.00,,,0.00,WUHU21623XXSP,2013-09-27 23:52:00,
2013-09-27 18:57:00,77.5,54.4,29.22,SE,135,0.9,4.3,45,0.00,,,0.00,WUHU21623XXSP,2013-09-27 23:57:00,
2013-09-27 19:02:00,77.2,54.1,29.23,SE,135,0.0,4.3,45,0.00,,,0.00,WUHU21623XXSP,2013-09-28 00:02:00,
2013-09-27 19:07:00,76.8,53.8,29.22,South,180,0.4,3.8,45,0.00,,,0.00,WUHU21623XXSP,2013-09-28 00:07:00,
2013-09-27 19:12:00,76.6,54.2,29.22,SSE,157,4.3,4.3,46,0.00,,,0.00,WUHU21623XXSP,2013-09-28 00:12:00,
2013-09-27 19:17:00,76.3,53.9,29.22,SE,135,5.4,5.4,46,0.00,,,0.00,WUHU21623XXSP,2013-09-28 00:17:00,
2013-09-27 19:22:00,75.9,53.6,29.22,SSE,157,2.9,5.4,46,0.00,,,0.00,WUHU21623XXSP,2013-09-28 00:22:00,
2013-09-27 19:27:00,75.7,53.4,29.22,SE,135,0.0,2.9,46,0.00,,,0.00,WUHU21623XXSP,2013-09-28 00:27:00,
2013-09-27 19:32:00,75.4,53.9,29.22,SSE,157,3.1,3.1,47,0.00,,,0.00,WUHU21623XXSP,2013-09-28 00:32:00,
2013-09-27 19:37:00,75.4,53.7,29.23,SE,135,2.9,3.1,47,0.00,,,0.00,WUHU21623XXSP,2013-09-28 00:37:00,
2013-09-27 19:42:00,75.0,53.4,29.23,SSE,157,1.3,3.1,47,0.00,,,0.00,WUHU21623XXSP,2013-09-28 00:42:00,
2013-09-27 19:47:00,74.8,53.8,29.23,SE,135,4.5,6.5,48,0.00,,,0.00,WUHU21623XXSP,2013-09-28 00:47:00,
2013-09-27 19:52:00,74.5,53.8,29.23,SE,135,0.0,6.5,48,0.00,,,0.00,WUHU21623XXSP,2013-09-28 00:52:00,
2013-09-27 19:57:00,74.5,53.5,29.23,SE,135,2.7,4.5,48,0.00,,,0.00,WUHU21623XXSP,2013-09-28 00:57:00,
2013-09-27 20:02:00,74.1,53.1,29.23,South,180,2.2,2.7,48,0.00,,,0.00,WUHU21623XXSP,2013-09-28 01:02:00,
2013-09-27 20:07:00,73.9,53.5,29.23,SSE,157,2.7,4.9,49,0.00,,,0.00,WUHU21623XXSP,2013-09-28 01:07:00,
2013-09-27 20:12:00,73.9,53.5,29.23,SE,135,2.9,4.9,49,0.00,,,0.00,WUHU21623XXSP,2013-09-28 01:12:00,
2013-09-27 20:17:00,73.6,53.3,29.23,SSE,157,5.6,5.6,49,0.00,,,0.00,WUHU21623XXSP,2013-09-28 01:17:00,
2013-09-27 20:22:00,73.2,53.6,29.23,SE,135,0.0,5.6,50,0.00,,,0.00,WUHU21623XXSP,2013-09-28 01:22:00,
2013-09-27 20:27:00,73.2,53.4,29.23,SE,135,4.9,5.6,50,0.00,,,0.00,WUHU21623XXSP,2013-09-28 01:27:00,
2013-09-27 20:32:00,73.0,53.3,29.23,SE,135,5.1,5.1,50,0.00,,,0.00,WUHU21623XXSP,2013-09-28 01:32:00,
2013-09-27 20:37:00,72.7,53.5,29.23,SSE,157,1.3,5.1,51,0.00,,,0.00,WUHU21623XXSP,2013-09-28 01:37:00,
2013-09-27 20:42:00,72.5,53.3,29.23,SE,135,0.0,2.7,51,0.00,,,0.00,WUHU21623XXSP,2013-09-28 01:42:00,
2013-09-27 20:47:00,72.3,53.1,29.24,SE,135,3.8,3.8,51,0.00,,,0.00,WUHU21623XXSP,2013-09-28 01:47:00,
2013-09-27 20:52:00,72.0,52.8,29.24,SE,135,6.3,6.3,51,0.00,,,0.00,WUHU21623XXSP,2013-09-28 01:52:00,
2013-09-27 20:57:00,71.8,53.2,29.24,SE,135,4.9,6.3,52,0.00,,,0.00,WUHU21623XXSP,2013-09-28 01:57:00,
2013-09-27 21:02:00,71.4,52.8,29.24,SE,135,4.0,7.2,52,0.00,,,0.00,WUHU21623XXSP,2013-09-28 02:02:00,
2013-09-27 21:07:00,71.2,52.7,29.24,SE,135,2.7,7.2,52,0.00,,,0.00,WUHU21623XXSP,2013-09-28 02:07:00,
2013-09-27 21:12:00,70.9,52.8,29.24,ESE,112,1.3,6.7,53,0.00,,,0.00,WUHU21623XXSP,2013-09-28 02:12:00,
2013-09-27 21:17:00,70.7,52.8,29.24,SSE,157,0.7,3.4,53,0.00,,,0.00,WUHU21623XXSP,2013-09-28 02:17:00,
2013-09-27 21:22:00,70.5,52.5,29.24,SE,135,0.0,1.3,53,0.00,,,0.00,WUHU21623XXSP,2013-09-28 02:22:00,
2013-09-27 21:27:00,70.3,52.4,29.24,SE,135,1.1,1.1,53,0.00,,,0.00,WUHU21623XXSP,2013-09-28 02:27:00,
2013-09-27 21:32:00,70.2,52.2,29.24,SE,135,3.1,3.1,53,0.00,,,0.00,WUHU21623XXSP,2013-09-28 02:32:00,
2013-09-27 21:37:00,70.0,52.0,29.24,SE,135,1.8,3.1,53,0.00,,,0.00,WUHU21623XXSP,2013-09-28 02:37:00,
2013-09-27 21:42:00,69.8,51.9,29.24,SE,135,6.9,6.9,53,0.00,,,0.00,WUHU21623XXSP,2013-09-28 02:42:00,
2013-09-27 21:47:00,69.6,52.2,29.24,ESE,112,6.7,6.9,53,0.00,,,0.00,WUHU21623XXSP,2013-09-28 02:47:00,
2013-09-27 21:52:00,69.6,52.2,29.24,SE,135,3.4,6.9,54,0.00,,,0.00,WUHU21623XXSP,2013-09-28 02:52:00,
2013-09-27 21:57:00,69.6,52.2,29.24,SE,135,0.0,3.4,54,0.00,,,0.00,WUHU21623XXSP,2013-09-28 02:57:00,
2013-09-27 22:02:00,69.4,52.0,29.24,SSE,157,3.1,3.1,54,0.00,,,0.00,WUHU21623XXSP,2013-09-28 03:02:00,
2013-09-27 22:07:00,69.3,51.9,29.24,SSE,157,0.7,4.0,54,0.00,,,0.00,WUHU21623XXSP,2013-09-28 03:07:00,
2013-09-27 22:12:00,69.1,51.7,29.24,SE,135,4.7,4.7,54,0.00,,,0.00,WUHU21623XXSP,2013-09-28 03:12:00,
2013-09-27 22:17:00,68.9,51.0,29.23,SE,135,3.8,4.7,53,0.00,,,0.00,WUHU21623XXSP,2013-09-28 03:17:00,
2013-09-27 22:22:00,68.7,51.0,29.23,SE,135,3.8,4.7,53,0.00,,,0.00,WUHU21623XXSP,2013-09-28 03:22:00,
2013-09-27 22:27:00,68.7,51.4,29.23,South,180,0.7,3.8,54,0.00,,,0.00,WUHU21623XXSP,2013-09-28 03:27:00,
2013-09-27 22:32:00,68.5,51.2,29.23,SE,135,5.6,6.5,54,0.00,,,0.00,WUHU21623XXSP,2013-09-28 03:32:00,
2013-09-27 22:37:00,68.5,51.2,29.23,SE,135,4.9,6.5,54,0.00,,,0.00,WUHU21623XXSP,2013-09-28 03:37:00,
2013-09-27 22:42:00,68.2,50.8,29.23,SSE,157,6.3,9.8,54,0.00,,,0.00,WUHU21623XXSP,2013-09-28 03:42:00,
2013-09-27 22:47:00,68.0,50.8,29.23,ESE,112,3.6,9.8,54,0.00,,,0.00,WUHU21623XXSP,2013-09-28 03:47:00,
2013-09-27 22:52:00,67.8,50.5,29.23,SE,135,6.9,8.3,54,0.00,,,0.00,WUHU21623XXSP,2013-09-28 03:52:00,
2013-09-27 22:57:00,67.8,50.5,29.23,South,180,0.0,8.3,54,0.00,,,0.00,WUHU21623XXSP,2013-09-28 03:57:00,
2013-09-27 23:01:00,67.8,51.0,29.22,SE,135,4.5,6.9,55,0.00,,,0.00,WUHU21623XXSP,2013-09-28 04:01:00,
2013-09-27 23:02:00,67.8,51.0,29.22,SE,135,4.5,4.5,55,0.00,,,0.00,WUHU21623XXSP,2013-09-28 04:02:00,
2013-09-27 23:07:00,67.6,50.8,29.23,SSE,157,5.4,5.4,55,0.00,,,0.00,WUHU21623XXSP,2013-09-28 04:07:00,
2013-09-27 23:12:00,67.6,50.8,29.22,ESE,112,4.7,5.4,55,0.00,,,0.00,WUHU21623XXSP,2013-09-28 04:12:00,
2013-09-27 23:57:00,66.4,50.8,29.23,SE,135,5.6,5.6,57,0.00,,,0.00,WUHU21623XXSP,2013-09-28 04:57:00,